createdAt,value
2018-09-20T00:01:38.441Z,99.90
2018-09-20T00:04:06.567Z,99.90
2018-09-20T00:06:34.702Z,99.90
2018-09-20T00:09:02.868Z,99.90
2018-09-20T00:11:31.000Z,99.90
2018-09-20T00:13:59.123Z,99.90
2018-09-20T00:16:27.294Z,99.90
2018-09-20T00:18:55.437Z,99.90
2018-09-20T00:21:23.526Z,99.90
2018-09-20T00:23:51.650Z,99.90
2018-09-20T00:26:19.806Z,99.90
2018-09-20T00:28:47.919Z,99.90
2018-09-20T00:31:16.062Z,99.90
2018-09-20T00:33:44.167Z,99.90
2018-09-20T00:36:12.286Z,99.90
2018-09-20T00:38:40.403Z,99.90
2018-09-20T00:41:08.523Z,99.90
2018-09-20T00:43:36.632Z,99.90
2018-09-20T00:46:04.862Z,99.90
2018-09-20T00:48:32.984Z,99.90
2018-09-20T00:51:01.206Z,99.90
2018-09-20T00:53:29.316Z,99.90
2018-09-20T00:55:57.450Z,99.90
2018-09-20T00:58:25.567Z,99.90
2018-09-20T01:00:53.727Z,99.90
2018-09-20T01:03:21.827Z,99.90
2018-09-20T01:05:49.951Z,99.90
2018-09-20T01:08:18.160Z,99.90
2018-09-20T01:10:46.297Z,99.90
2018-09-20T01:13:14.513Z,99.90
2018-09-20T01:15:42.639Z,99.90
2018-09-20T01:18:10.760Z,99.90
2018-09-20T01:20:38.885Z,99.90
2018-09-20T01:23:07.173Z,99.90
2018-09-20T01:25:35.307Z,99.90
2018-09-20T01:28:03.423Z,99.90
2018-09-20T01:30:31.562Z,99.90
2018-09-20T01:32:59.755Z,99.90
2018-09-20T01:35:27.929Z,99.90
2018-09-20T01:37:56.004Z,99.90
2018-09-20T01:40:24.115Z,99.90
2018-09-20T01:42:52.238Z,99.90
2018-09-20T01:45:20.367Z,99.90
2018-09-20T01:47:48.513Z,99.90
2018-09-20T01:50:16.636Z,99.90
2018-09-20T01:52:44.764Z,99.90
2018-09-20T01:55:12.922Z,99.90
2018-09-20T01:57:41.058Z,99.90
2018-09-20T02:00:09.179Z,99.90
2018-09-20T02:02:37.317Z,99.90
2018-09-20T02:05:06.045Z,99.90
2018-09-20T02:07:34.182Z,99.90
2018-09-20T02:10:02.313Z,99.90
2018-09-20T02:12:30.450Z,99.90
2018-09-20T02:14:58.583Z,99.90
2018-09-20T02:17:26.719Z,99.90
2018-09-20T02:19:54.839Z,99.90
2018-09-20T02:22:23.021Z,99.90
2018-09-20T02:24:51.154Z,99.90
2018-09-20T02:27:19.286Z,99.90
2018-09-20T02:29:47.399Z,99.90
2018-09-20T02:32:15.548Z,99.90
2018-09-20T02:34:43.653Z,99.90
2018-09-20T02:37:11.800Z,99.90
2018-09-20T02:39:39.924Z,99.90
2018-09-20T02:42:08.046Z,99.90
2018-09-20T02:44:36.179Z,99.90
2018-09-20T02:47:04.324Z,99.90
2018-09-20T02:49:32.443Z,99.90
2018-09-20T02:52:00.588Z,99.90
2018-09-20T02:54:28.696Z,99.90
2018-09-20T02:57:03.555Z,99.90
2018-09-20T02:59:31.667Z,99.90
2018-09-20T03:01:59.828Z,99.90
2018-09-20T03:04:28.023Z,99.90
2018-09-20T03:06:56.169Z,99.90
2018-09-20T03:09:24.293Z,99.90
2018-09-20T03:11:52.423Z,99.90
2018-09-20T03:14:20.540Z,99.90
2018-09-20T03:16:48.688Z,99.90
2018-09-20T03:19:16.810Z,99.90
2018-09-20T03:21:44.979Z,99.90
2018-09-20T03:24:13.106Z,99.90
2018-09-20T03:26:41.271Z,99.90
2018-09-20T03:29:09.391Z,99.90
2018-09-20T03:31:37.544Z,99.90
2018-09-20T03:34:05.745Z,99.90
2018-09-20T03:36:33.883Z,99.90
2018-09-20T03:39:02.008Z,99.90
2018-09-20T03:41:30.173Z,99.90
2018-09-20T03:43:58.308Z,99.90
2018-09-20T03:46:26.451Z,99.90
2018-09-20T03:48:54.580Z,99.90
2018-09-20T03:51:22.713Z,99.90
2018-09-20T03:53:50.867Z,99.90
2018-09-20T03:56:19.134Z,99.90
2018-09-20T03:58:47.283Z,99.90
2018-09-20T04:01:15.399Z,99.90
2018-09-20T04:03:43.522Z,99.90
2018-09-20T04:06:11.647Z,99.90
2018-09-20T04:08:39.779Z,99.90
2018-09-20T04:11:07.912Z,99.90
2018-09-20T04:13:36.092Z,99.90
2018-09-20T04:16:04.222Z,99.90
2018-09-20T04:18:32.405Z,99.90
2018-09-20T04:21:00.526Z,99.90
2018-09-20T04:23:28.662Z,99.90
2018-09-20T04:25:56.793Z,99.90
2018-09-20T04:28:24.938Z,99.90
2018-09-20T04:30:53.079Z,99.90
2018-09-20T04:33:21.223Z,99.90
2018-09-20T04:35:49.356Z,99.90
2018-09-20T04:38:17.487Z,99.90
2018-09-20T04:40:45.624Z,99.90
2018-09-20T04:43:13.799Z,99.90
2018-09-20T04:45:52.870Z,99.90
2018-09-20T04:48:22.867Z,99.90
2018-09-20T04:50:51.435Z,99.90
2018-09-20T04:53:24.157Z,99.90
2018-09-20T04:55:52.436Z,99.90
2018-09-20T04:58:21.986Z,99.90
2018-09-20T05:00:51.242Z,99.90
2018-09-20T05:03:19.435Z,99.90
2018-09-20T05:05:47.560Z,99.90
2018-09-20T05:08:15.691Z,99.90
2018-09-20T05:10:43.851Z,99.90
2018-09-20T05:13:11.959Z,99.90
2018-09-20T05:15:40.388Z,99.90
2018-09-20T05:18:08.519Z,99.90
2018-09-20T05:20:36.679Z,99.90
2018-09-20T05:23:04.828Z,99.90
2018-09-20T05:25:32.972Z,99.90
2018-09-20T05:28:01.118Z,99.90
2018-09-20T05:30:29.367Z,99.90
2018-09-20T05:32:57.520Z,99.90
2018-09-20T05:35:25.762Z,99.90
2018-09-20T05:37:53.851Z,99.90
2018-09-20T05:40:21.991Z,99.90
2018-09-20T05:42:50.555Z,99.90
2018-09-20T05:45:18.708Z,99.90
2018-09-20T05:47:46.899Z,99.90
2018-09-20T05:50:15.044Z,99.90
2018-09-20T05:52:43.183Z,99.90
2018-09-20T05:55:11.327Z,99.90
2018-09-20T05:57:39.464Z,99.90
2018-09-20T06:00:07.867Z,99.90
2018-09-20T06:02:36.235Z,99.90
2018-09-20T06:05:04.456Z,99.90
2018-09-20T06:07:32.579Z,99.90
2018-09-20T06:10:00.814Z,99.90
2018-09-20T06:12:29.055Z,99.90
2018-09-20T06:14:57.188Z,99.90
2018-09-20T06:17:25.675Z,99.90
2018-09-20T06:19:54.170Z,99.90
2018-09-20T06:22:22.304Z,99.90
2018-09-20T06:24:50.438Z,99.90
2018-09-20T06:27:18.581Z,99.90
2018-09-20T06:29:46.731Z,99.90
2018-09-20T06:32:14.917Z,99.90
2018-09-20T06:34:43.067Z,99.90
2018-09-20T06:37:11.197Z,99.90
2018-09-20T06:39:39.333Z,99.90
2018-09-20T06:42:07.486Z,99.90
2018-09-20T06:44:35.669Z,99.90
2018-09-20T06:47:03.797Z,99.90
2018-09-20T06:49:31.941Z,99.90
2018-09-20T06:52:00.068Z,99.90
2018-09-20T06:54:28.222Z,99.90
2018-09-20T06:56:56.343Z,99.90
2018-09-20T06:59:24.481Z,99.90
2018-09-20T07:01:52.647Z,99.90
2018-09-20T07:04:20.774Z,99.90
2018-09-20T07:06:49.095Z,99.90
2018-09-20T07:09:17.236Z,99.90
2018-09-20T07:11:45.376Z,99.90
2018-09-20T07:14:13.493Z,99.90
2018-09-20T07:16:41.635Z,99.90
2018-09-20T07:19:09.819Z,99.90
2018-09-20T07:21:37.944Z,99.90
2018-09-20T07:24:06.096Z,99.90
2018-09-20T07:26:34.412Z,99.90
2018-09-20T07:29:02.553Z,99.90
2018-09-20T07:31:30.693Z,99.90
2018-09-20T07:33:58.823Z,99.90
2018-09-20T07:36:26.954Z,99.90
2018-09-20T07:38:55.076Z,99.90
2018-09-20T07:41:23.257Z,99.90
2018-09-20T07:43:51.416Z,99.90
2018-09-20T07:46:19.560Z,99.90
2018-09-20T07:48:47.684Z,99.90
2018-09-20T07:51:15.806Z,99.90
2018-09-20T07:53:44.245Z,99.90
2018-09-20T07:56:12.331Z,99.90
2018-09-20T07:58:40.455Z,99.90
2018-09-20T08:01:08.599Z,99.90
2018-09-20T08:03:36.771Z,99.90
2018-09-20T08:06:04.918Z,99.90
2018-09-20T08:08:33.065Z,99.90
2018-09-20T08:11:28.668Z,99.90
2018-09-20T08:13:57.247Z,99.90
2018-09-20T08:16:25.430Z,99.90
2018-09-20T08:18:54.025Z,99.90
2018-09-20T08:21:22.608Z,99.90
2018-09-20T08:23:50.763Z,99.90
2018-09-20T08:26:19.264Z,99.90
2018-09-20T08:28:47.713Z,99.90
2018-09-20T08:31:16.091Z,99.90
2018-09-20T08:33:44.439Z,99.90
2018-09-20T08:36:12.811Z,99.90
2018-09-20T08:38:41.180Z,99.90
2018-09-20T08:41:09.544Z,99.90
2018-09-20T08:43:37.966Z,99.90
2018-09-20T08:46:06.262Z,99.90
2018-09-20T08:48:34.587Z,99.90
2018-09-20T08:51:02.945Z,99.90
2018-09-20T08:53:31.227Z,99.90
2018-09-20T08:55:59.557Z,99.90
2018-09-20T08:58:31.745Z,99.90
2018-09-20T09:01:01.236Z,99.90
2018-09-20T09:03:29.777Z,99.90
2018-09-20T09:05:58.108Z,99.50
2018-09-20T09:08:26.502Z,99.20
2018-09-20T09:10:54.907Z,99.00
2018-09-20T09:13:23.236Z,99.10
2018-09-20T09:15:51.615Z,99.00
2018-09-20T09:18:19.899Z,99.10
2018-09-20T09:20:48.240Z,98.80
2018-09-20T09:23:16.643Z,98.80
2018-09-20T09:25:44.983Z,98.20
2018-09-20T09:28:13.292Z,97.50
2018-09-20T09:30:41.604Z,97.40
2018-09-20T09:33:09.951Z,97.50
2018-09-20T09:35:38.271Z,97.00
2018-09-20T09:38:06.578Z,96.30
2018-09-20T09:40:34.906Z,96.20
2018-09-20T09:43:03.249Z,95.60
2018-09-20T09:45:31.557Z,95.20
2018-09-20T09:47:59.925Z,95.10
2018-09-20T09:50:28.283Z,94.40
2018-09-20T09:52:56.628Z,93.80
2018-09-20T09:55:25.013Z,93.90
2018-09-20T09:57:54.467Z,93.40
2018-09-20T10:00:28.349Z,93.60
2018-09-20T10:02:57.889Z,94.20
2018-09-20T10:05:26.332Z,93.50
2018-09-20T10:07:55.153Z,93.70
2018-09-20T10:10:23.479Z,93.00
2018-09-20T10:12:51.834Z,92.00
2018-09-20T10:15:20.171Z,90.70
2018-09-20T10:17:48.567Z,91.00
2018-09-20T10:20:17.462Z,91.30
2018-09-20T10:22:45.827Z,90.50
2018-09-20T10:25:14.164Z,90.80
2018-09-20T10:27:42.487Z,91.50
2018-09-20T10:30:10.812Z,91.50
2018-09-20T10:32:39.149Z,91.70
2018-09-20T10:35:07.527Z,91.70
2018-09-20T10:37:36.118Z,91.90
2018-09-20T10:40:04.839Z,91.90
2018-09-20T10:42:33.283Z,91.60
2018-09-20T10:45:01.660Z,91.40
2018-09-20T10:47:30.011Z,90.90
2018-09-20T10:49:58.350Z,91.20
2018-09-20T10:52:26.961Z,91.10
2018-09-20T10:54:55.455Z,90.50
2018-09-20T10:57:23.810Z,90.60
2018-09-20T10:59:52.142Z,90.60
2018-09-20T11:02:20.483Z,90.10
2018-09-20T11:04:48.842Z,90.30
2018-09-20T11:07:17.180Z,90.40
2018-09-20T11:09:45.529Z,90.20
2018-09-20T11:12:13.841Z,89.40
2018-09-20T11:14:42.190Z,89.30
2018-09-20T11:17:10.591Z,88.70
2018-09-20T11:19:38.925Z,88.70
2018-09-20T11:22:07.268Z,88.80
2018-09-20T11:24:35.596Z,87.40
2018-09-20T11:27:03.927Z,87.30
2018-09-20T11:29:32.276Z,87.40
2018-09-20T11:32:00.608Z,86.60
2018-09-20T11:34:28.951Z,86.90
2018-09-20T11:36:57.278Z,85.50
2018-09-20T11:39:25.660Z,87.10
2018-09-20T11:41:53.954Z,87.50
2018-09-20T11:44:22.294Z,88.10
2018-09-20T11:46:50.631Z,87.60
2018-09-20T11:49:18.967Z,87.90
2018-09-20T11:51:47.301Z,89.20
2018-09-20T11:54:15.684Z,88.50
2018-09-20T11:56:44.011Z,88.80
2018-09-20T11:59:12.345Z,88.00
2018-09-20T12:01:40.678Z,87.90
2018-09-20T12:04:09.193Z,88.80
2018-09-20T12:06:37.508Z,87.00
2018-09-20T12:09:07.092Z,87.00
2018-09-20T12:11:35.423Z,86.60
2018-09-20T12:14:03.779Z,86.90
2018-09-20T12:16:32.151Z,87.60
2018-09-20T12:19:00.490Z,87.70
2018-09-20T12:21:28.903Z,88.10
2018-09-20T12:23:57.280Z,88.60
2018-09-20T12:26:25.599Z,87.90
2018-09-20T12:28:54.005Z,86.90
2018-09-20T12:31:22.492Z,86.80
2018-09-20T12:33:50.829Z,86.90
2018-09-20T12:36:19.163Z,86.60
2018-09-20T12:38:47.476Z,86.80
2018-09-20T12:41:15.835Z,87.00
2018-09-20T12:43:44.146Z,86.70
2018-09-20T12:46:12.489Z,86.30
2018-09-20T12:48:40.825Z,86.10
2018-09-20T12:51:09.272Z,86.10
2018-09-20T12:53:37.629Z,85.80
2018-09-20T12:56:06.012Z,84.10
2018-09-20T12:58:39.838Z,84.40
2018-09-20T13:01:08.136Z,85.20
2018-09-20T13:03:36.582Z,83.80
2018-09-20T13:06:04.928Z,82.40
2018-09-20T13:08:33.244Z,82.30
2018-09-20T13:11:01.588Z,81.80
2018-09-20T13:13:29.921Z,82.50
2018-09-20T13:15:58.247Z,83.00
2018-09-20T13:18:26.574Z,82.20
2018-09-20T13:20:54.914Z,83.10
2018-09-20T13:23:23.235Z,82.30
2018-09-20T13:25:51.602Z,80.60
2018-09-20T13:28:19.920Z,79.20
2018-09-20T13:30:48.517Z,80.00
2018-09-20T13:33:16.967Z,79.50
2018-09-20T13:35:45.325Z,78.20
2018-09-20T13:38:13.684Z,78.00
2018-09-20T13:40:42.068Z,76.20
2018-09-20T13:43:10.465Z,77.40
2018-09-20T13:45:38.768Z,77.50
2018-09-20T13:48:07.089Z,79.50
2018-09-20T13:50:35.462Z,79.70
2018-09-20T13:53:03.896Z,79.70
2018-09-20T13:55:32.219Z,76.60
2018-09-20T13:58:00.528Z,76.60
2018-09-20T14:00:28.867Z,75.70
2018-09-20T14:02:57.151Z,75.00
2018-09-20T14:05:25.698Z,76.90
2018-09-20T14:07:54.080Z,75.60
2018-09-20T14:10:22.399Z,75.80
2018-09-20T14:12:50.725Z,75.90
2018-09-20T14:15:19.096Z,75.90
2018-09-20T14:17:47.380Z,76.20
2018-09-20T14:20:15.821Z,76.00
2018-09-20T14:22:44.170Z,76.30
2018-09-20T14:25:12.547Z,75.80
2018-09-20T14:27:40.953Z,76.70
2018-09-20T14:30:09.653Z,77.30
2018-09-20T14:32:38.051Z,78.20
2018-09-20T14:35:06.412Z,78.30
2018-09-20T14:37:34.762Z,78.20
2018-09-20T14:40:03.315Z,78.40
2018-09-20T14:42:31.646Z,78.20
2018-09-20T14:44:59.974Z,76.10
2018-09-20T14:47:28.420Z,76.30
2018-09-20T14:49:56.699Z,76.00
2018-09-20T14:52:31.711Z,75.60
2018-09-20T14:55:00.022Z,74.60
2018-09-20T14:57:28.367Z,74.10
2018-09-20T14:59:56.730Z,74.90
2018-09-20T15:02:25.130Z,74.20
2018-09-20T15:04:53.391Z,74.60
2018-09-20T15:07:21.818Z,74.80
2018-09-20T15:09:50.136Z,74.70
2018-09-20T15:12:18.495Z,74.90
2018-09-20T15:14:46.847Z,74.90
2018-09-20T15:17:15.263Z,76.20
2018-09-20T15:19:43.580Z,75.50
2018-09-20T15:22:11.890Z,76.20
2018-09-20T15:24:40.280Z,75.90
2018-09-20T15:27:08.579Z,75.40
2018-09-20T15:29:36.907Z,75.60
2018-09-20T15:32:05.279Z,75.20
2018-09-20T15:34:33.603Z,74.90
2018-09-20T15:37:01.947Z,75.30
2018-09-20T15:39:30.282Z,75.10
2018-09-20T15:41:58.608Z,74.70
2018-09-20T15:44:26.964Z,75.20
2018-09-20T15:46:55.313Z,74.00
2018-09-20T15:49:23.633Z,74.00
2018-09-20T15:51:52.005Z,73.90
2018-09-20T15:54:20.341Z,74.30
2018-09-20T15:56:48.740Z,74.30
2018-09-20T15:59:17.059Z,74.60
2018-09-20T16:01:45.394Z,74.70
2018-09-20T16:04:13.712Z,74.90
2018-09-20T16:06:42.066Z,75.30
2018-09-20T16:09:11.601Z,74.90
2018-09-20T16:11:40.003Z,75.00
2018-09-20T16:14:08.613Z,75.40
2018-09-20T16:16:36.944Z,75.40
2018-09-20T16:19:05.408Z,75.40
2018-09-20T16:21:33.793Z,76.10
2018-09-20T16:24:02.120Z,75.60
2018-09-20T16:26:30.496Z,75.70
2018-09-20T16:29:08.926Z,75.80
2018-09-20T16:31:53.156Z,76.30
2018-09-20T16:34:33.861Z,75.90
2018-09-20T16:37:14.268Z,75.90
2018-09-20T16:39:44.090Z,76.30
2018-09-20T16:42:13.602Z,76.20
2018-09-20T16:44:41.758Z,76.70
2018-09-20T16:47:09.899Z,76.60
2018-09-20T16:49:38.342Z,76.70
2018-09-20T16:52:06.696Z,76.90
2018-09-20T16:54:35.548Z,77.00
2018-09-20T16:57:03.816Z,77.20
2018-09-20T16:59:32.323Z,77.70
2018-09-20T17:02:00.706Z,77.80
2018-09-20T17:04:29.189Z,78.50
2018-09-20T17:06:57.524Z,78.60
2018-09-20T17:09:25.876Z,79.00
2018-09-20T17:11:54.227Z,79.40
2018-09-20T17:14:22.620Z,79.60
2018-09-20T17:16:50.956Z,80.00
2018-09-20T17:19:19.268Z,80.50
2018-09-20T17:21:47.579Z,81.00
2018-09-20T17:24:16.307Z,81.60
2018-09-20T17:26:44.647Z,83.60
2018-09-20T17:29:12.988Z,84.90
2018-09-20T17:31:41.299Z,84.30
2018-09-20T17:34:09.644Z,86.80
2018-09-20T17:36:38.139Z,86.40
2018-09-20T17:39:09.832Z,87.20
2018-09-20T17:41:38.545Z,87.50
2018-09-20T17:44:07.864Z,91.40
2018-09-20T17:46:36.548Z,91.30
2018-09-20T17:49:05.198Z,90.30
2018-09-20T17:51:34.127Z,90.80
2018-09-20T17:54:02.457Z,91.30
2018-09-20T17:56:31.079Z,93.10
2018-09-20T17:58:59.960Z,92.60
2018-09-20T18:01:28.174Z,92.20
2018-09-20T18:03:56.504Z,92.70
2018-09-20T18:06:24.928Z,94.50
2018-09-20T18:08:53.244Z,93.90
2018-09-20T18:11:21.629Z,93.70
2018-09-20T18:13:49.954Z,94.20
2018-09-20T18:16:18.294Z,96.10
2018-09-20T18:18:46.648Z,96.80
2018-09-20T18:21:14.992Z,97.60
2018-09-20T18:23:43.304Z,97.10
2018-09-20T18:26:11.649Z,98.20
2018-09-20T18:28:40.150Z,99.50
2018-09-20T18:31:08.500Z,99.30
2018-09-20T18:33:36.825Z,99.60
2018-09-20T18:36:05.159Z,99.90
2018-09-20T18:38:33.469Z,99.90
2018-09-20T18:41:01.799Z,99.90
2018-09-20T18:43:30.108Z,99.90
2018-09-20T18:45:58.444Z,99.90
2018-09-20T18:48:26.801Z,99.90
2018-09-20T18:50:55.118Z,99.90
2018-09-20T18:53:23.443Z,99.90
2018-09-20T18:55:51.797Z,99.90
2018-09-20T18:58:20.112Z,99.90
2018-09-20T19:00:49.329Z,99.90
2018-09-20T19:03:17.701Z,99.90
2018-09-20T19:05:45.979Z,99.90
2018-09-20T19:08:14.297Z,99.90
2018-09-20T19:10:42.629Z,99.90
2018-09-20T19:13:10.992Z,99.90
2018-09-20T19:15:39.316Z,99.90
2018-09-20T19:18:07.639Z,99.90
2018-09-20T19:20:36.012Z,99.90
2018-09-20T19:23:04.326Z,99.90
2018-09-20T19:25:32.591Z,99.90
2018-09-20T19:28:01.000Z,99.90
2018-09-20T19:30:29.367Z,99.90
2018-09-20T19:32:57.713Z,99.90
2018-09-20T19:35:26.031Z,99.90
2018-09-20T19:37:54.363Z,99.90
2018-09-20T19:40:22.741Z,99.90
2018-09-20T19:42:51.088Z,99.90
2018-09-20T19:45:19.369Z,99.90
2018-09-20T19:47:47.704Z,99.90
2018-09-20T19:50:16.027Z,99.90
2018-09-20T19:52:44.375Z,99.90
2018-09-20T19:55:12.689Z,99.90
2018-09-20T19:57:41.025Z,99.90
2018-09-20T20:00:09.357Z,99.90
2018-09-20T20:02:37.671Z,99.90
2018-09-20T20:05:06.034Z,99.90
2018-09-20T20:07:34.370Z,99.90
2018-09-20T20:10:02.847Z,99.90
2018-09-20T20:12:31.164Z,99.90
2018-09-20T20:14:59.472Z,99.90
2018-09-20T20:17:27.802Z,99.90
2018-09-20T20:19:56.206Z,99.90
2018-09-20T20:22:24.508Z,99.90
2018-09-20T20:24:52.816Z,99.90
2018-09-20T20:27:21.147Z,99.90
2018-09-20T20:29:49.458Z,99.90
2018-09-20T20:32:17.798Z,99.90
2018-09-20T20:34:46.121Z,99.90
2018-09-20T20:37:14.452Z,99.90
2018-09-20T20:39:42.800Z,99.90
2018-09-20T20:42:11.116Z,99.90
2018-09-20T20:44:39.433Z,99.90
2018-09-20T20:47:07.759Z,99.90
2018-09-20T20:49:36.072Z,99.90
2018-09-20T20:52:04.410Z,99.90
2018-09-20T20:54:32.721Z,99.90
2018-09-20T20:57:01.047Z,99.90
2018-09-20T20:59:29.359Z,99.90
2018-09-20T21:01:57.753Z,99.90
2018-09-20T21:04:26.073Z,99.90
2018-09-20T21:06:54.395Z,99.90
2018-09-20T21:09:22.707Z,99.90
2018-09-20T21:11:51.029Z,99.90
2018-09-20T21:14:19.429Z,99.90
2018-09-20T21:16:47.774Z,99.90
2018-09-20T21:19:16.082Z,99.90
2018-09-20T21:21:44.422Z,99.90
2018-09-20T21:24:12.759Z,99.90
2018-09-20T21:26:41.096Z,99.90
2018-09-20T21:29:09.449Z,99.90
2018-09-20T21:31:37.790Z,99.90
2018-09-20T21:34:06.143Z,99.90
2018-09-20T21:36:34.447Z,99.90
2018-09-20T21:39:02.817Z,99.90
2018-09-20T21:41:31.156Z,99.90
2018-09-20T21:43:59.477Z,99.90
2018-09-20T21:46:27.775Z,99.90
2018-09-20T21:48:56.154Z,99.90
2018-09-20T21:51:24.492Z,99.90
2018-09-20T21:53:52.837Z,99.90
2018-09-20T21:56:21.162Z,99.90
2018-09-20T21:58:49.576Z,99.90
2018-09-20T22:01:17.899Z,99.90
2018-09-20T22:03:46.220Z,99.90
2018-09-20T22:06:14.515Z,99.90
2018-09-20T22:08:42.835Z,99.90
2018-09-20T22:11:11.155Z,99.90
2018-09-20T22:13:39.526Z,99.90
2018-09-20T22:16:07.832Z,99.90
2018-09-20T22:18:36.171Z,99.90
2018-09-20T22:21:04.488Z,99.90
2018-09-20T22:23:32.819Z,99.90
2018-09-20T22:26:01.128Z,99.90
2018-09-20T22:28:29.460Z,99.90
2018-09-20T22:30:57.786Z,99.90
2018-09-20T22:33:26.113Z,99.90
2018-09-20T22:35:54.445Z,99.90
2018-09-20T22:38:22.795Z,99.90
2018-09-20T22:40:51.151Z,99.90
2018-09-20T22:43:19.478Z,99.90
2018-09-20T22:45:47.807Z,99.90
2018-09-20T22:48:16.191Z,99.90
2018-09-20T22:50:44.496Z,99.90
2018-09-20T22:53:12.809Z,99.90
2018-09-20T22:55:41.107Z,99.90
2018-09-20T22:58:09.432Z,99.90
2018-09-20T23:00:37.731Z,99.90
2018-09-20T23:03:06.106Z,99.90
2018-09-20T23:05:34.427Z,99.90
2018-09-20T23:08:02.757Z,99.30
2018-09-20T23:10:31.097Z,99.20
2018-09-20T23:12:59.428Z,98.90
2018-09-20T23:15:27.756Z,98.70
2018-09-20T23:17:56.066Z,98.60
2018-09-20T23:20:24.410Z,98.50
2018-09-20T23:22:53.776Z,98.20
2018-09-20T23:25:21.947Z,98.00
2018-09-20T23:27:50.567Z,97.90
2018-09-20T23:30:18.889Z,97.80
2018-09-20T23:32:47.203Z,97.70
2018-09-20T23:35:15.590Z,97.70
2018-09-20T23:37:43.915Z,97.60
2018-09-20T23:40:12.347Z,97.60
2018-09-20T23:42:40.645Z,97.60
2018-09-20T23:45:09.027Z,97.60
2018-09-20T23:47:37.399Z,97.10
2018-09-20T23:50:05.732Z,97.10
2018-09-20T23:52:34.041Z,97.10
2018-09-20T23:55:02.368Z,96.60
2018-09-20T23:57:30.698Z,96.60
2018-09-20T23:59:59.046Z,96.50
